sensor_id;sensor_type;location;lat;lon;timestamp;pressure;altitude;pressure_sealevel;temperature;humidity
20003;BME280;10162;41.600;23.806;2023-05-19T00:01:20;95233.44;;;11.14;100.00
20003;BME280;10162;41.600;23.806;2023-05-19T00:03:52;95221.31;;;11.00;100.00
20003;BME280;10162;41.600;23.806;2023-05-19T00:06:23;95223.09;;;11.00;100.00
20003;BME280;10162;41.600;23.806;2023-05-19T00:09:09;95213.88;;;11.04;100.00
20003;BME280;10162;41.600;23.806;2023-05-19T00:11:37;95226.28;;;11.36;100.00
20003;BME280;10162;41.600;23.806;2023-05-19T00:14:06;95200.94;;;10.89;100.00
20003;BME280;10162;41.600;23.806;2023-05-19T00:16:33;95206.56;;;10.86;100.00
20003;BME280;10162;41.600;23.806;2023-05-19T00:21:57;95212.13;;;11.17;100.00
20003;BME280;10162;41.600;23.806;2023-05-19T00:24:23;95217.44;;;11.37;100.00
20003;BME280;10162;41.600;23.806;2023-05-19T00:26:50;95222.72;;;11.03;100.00
20003;BME280;10162;41.600;23.806;2023-05-19T00:29:22;95209.97;;;11.28;100.00
20003;BME280;10162;41.600;23.806;2023-05-19T00:31:51;95223.63;;;11.30;100.00
20003;BME280;10162;41.600;23.806;2023-05-19T00:34:16;95234.03;;;11.16;100.00
20003;BME280;10162;41.600;23.806;2023-05-19T00:36:42;95220.72;;;10.98;100.00
20003;BME280;10162;41.600;23.806;2023-05-19T00:39:21;95206.47;;;11.14;100.00
20003;BME280;10162;41.600;23.806;2023-05-19T00:41:48;95215.53;;;11.18;100.00
20003;BME280;10162;41.600;23.806;2023-05-19T00:44:13;95240.28;;;11.09;100.00
20003;BME280;10162;41.600;23.806;2023-05-19T00:46:39;95214.97;;;10.75;100.00
20003;BME280;10162;41.600;23.806;2023-05-19T00:49:15;95238.63;;;10.67;100.00
20003;BME280;10162;41.600;23.806;2023-05-19T00:51:41;95214.06;;;10.61;100.00
20003;BME280;10162;41.600;23.806;2023-05-19T00:54:07;95224.44;;;10.83;100.00
20003;BME280;10162;41.600;23.806;2023-05-19T00:56:34;95236.88;;;11.15;100.00
20003;BME280;10162;41.600;23.806;2023-05-19T01:02:53;95217.88;;;11.00;100.00
20003;BME280;10162;41.600;23.806;2023-05-19T01:05:22;95208.78;;;10.89;100.00
20003;BME280;10162;41.600;23.806;2023-05-19T01:07:48;95217.31;;;11.04;100.00
20003;BME280;10162;41.600;23.806;2023-05-19T01:13:10;95209.22;;;10.93;100.00
20003;BME280;10162;41.600;23.806;2023-05-19T01:16:04;95234.19;;;11.02;100.00
20003;BME280;10162;41.600;23.806;2023-05-19T01:33:59;95197.53;;;10.95;100.00
20003;BME280;10162;41.600;23.806;2023-05-19T01:36:25;95196.94;;;10.93;100.00
20003;BME280;10162;41.600;23.806;2023-05-19T01:38:55;95204.88;;;11.19;100.00
20003;BME280;10162;41.600;23.806;2023-05-19T01:41:23;95195.34;;;11.05;100.00
20003;BME280;10162;41.600;23.806;2023-05-19T01:43:51;95185.91;;;10.98;100.00
20003;BME280;10162;41.600;23.806;2023-05-19T01:46:18;95194.88;;;10.89;100.00
20003;BME280;10162;41.600;23.806;2023-05-19T01:48:47;95202.97;;;10.87;100.00
20003;BME280;10162;41.600;23.806;2023-05-19T01:51:13;95191.84;;;10.78;100.00
20003;BME280;10162;41.600;23.806;2023-05-19T01:53:41;95187.63;;;10.84;100.00
20003;BME280;10162;41.600;23.806;2023-05-19T01:56:07;95187.19;;;10.74;100.00
20003;BME280;10162;41.600;23.806;2023-05-19T01:58:48;95206.13;;;10.83;100.00
20003;BME280;10162;41.600;23.806;2023-05-19T02:01:45;95202.75;;;10.89;100.00
20003;BME280;10162;41.600;23.806;2023-05-19T02:04:28;95177.94;;;10.78;100.00
20003;BME280;10162;41.600;23.806;2023-05-19T02:07:04;95198.25;;;10.69;100.00
20003;BME280;10162;41.600;23.806;2023-05-19T02:09:52;95190.75;;;10.66;100.00
20003;BME280;10162;41.600;23.806;2023-05-19T02:12:39;95182.41;;;10.84;100.00
20003;BME280;10162;41.600;23.806;2023-05-19T02:15:21;95174.31;;;10.72;100.00
20003;BME280;10162;41.600;23.806;2023-05-19T02:17:50;95188.38;;;10.65;100.00
20003;BME280;10162;41.600;23.806;2023-05-19T02:23:40;95195.09;;;10.87;100.00
20003;BME280;10162;41.600;23.806;2023-05-19T02:26:06;95203.25;;;11.12;100.00
20003;BME280;10162;41.600;23.806;2023-05-19T02:28:33;95205.25;;;11.16;100.00
20003;BME280;10162;41.600;23.806;2023-05-19T02:31:12;95206.75;;;10.85;100.00
20003;BME280;10162;41.600;23.806;2023-05-19T02:33:38;95188.25;;;10.86;100.00
20003;BME280;10162;41.600;23.806;2023-05-19T02:36:04;95199.13;;;10.90;100.00
20003;BME280;10162;41.600;23.806;2023-05-19T02:38:30;95196.31;;;10.50;100.00
20003;BME280;10162;41.600;23.806;2023-05-19T02:41:26;95217.31;;;10.63;100.00
20003;BME280;10162;41.600;23.806;2023-05-19T02:43:54;95209.00;;;10.53;100.00
20003;BME280;10162;41.600;23.806;2023-05-19T02:46:20;95218.44;;;10.48;100.00
20003;BME280;10162;41.600;23.806;2023-05-19T02:48:46;95201.72;;;10.42;100.00
20003;BME280;10162;41.600;23.806;2023-05-19T02:51:11;95199.84;;;10.36;100.00
20003;BME280;10162;41.600;23.806;2023-05-19T02:53:38;95175.84;;;10.26;100.00
20003;BME280;10162;41.600;23.806;2023-05-19T02:56:04;95185.41;;;10.40;100.00
20003;BME280;10162;41.600;23.806;2023-05-19T02:58:30;95195.28;;;10.45;100.00
20003;BME280;10162;41.600;23.806;2023-05-19T03:00:58;95189.31;;;10.23;100.00
20003;BME280;10162;41.600;23.806;2023-05-19T03:03:24;95194.31;;;10.18;100.00
20003;BME280;10162;41.600;23.806;2023-05-19T03:05:50;95184.84;;;9.95;100.00
20003;BME280;10162;41.600;23.806;2023-05-19T03:08:26;95206.97;;;10.00;100.00
20003;BME280;10162;41.600;23.806;2023-05-19T03:10:56;95228.00;;;10.13;100.00
20003;BME280;10162;41.600;23.806;2023-05-19T03:13:22;95229.56;;;10.07;100.00
20003;BME280;10162;41.600;23.806;2023-05-19T03:15:51;95226.94;;;9.86;100.00
20003;BME280;10162;41.600;23.806;2023-05-19T03:18:22;95202.91;;;9.69;100.00
20003;BME280;10162;41.600;23.806;2023-05-19T03:21:25;95226.00;;;9.93;100.00
20003;BME280;10162;41.600;23.806;2023-05-19T03:23:52;95234.13;;;10.26;100.00
20003;BME280;10162;41.600;23.806;2023-05-19T03:26:19;95228.81;;;9.92;100.00
20003;BME280;10162;41.600;23.806;2023-05-19T03:28:59;95228.88;;;9.77;100.00
20003;BME280;10162;41.600;23.806;2023-05-19T03:31:29;95235.72;;;9.78;100.00
20003;BME280;10162;41.600;23.806;2023-05-19T03:33:55;95228.00;;;9.91;100.00
20003;BME280;10162;41.600;23.806;2023-05-19T03:36:24;95245.16;;;10.01;100.00
20003;BME280;10162;41.600;23.806;2023-05-19T03:43:04;95231.88;;;10.17;100.00
20003;BME280;10162;41.600;23.806;2023-05-19T03:45:40;95232.69;;;9.96;100.00
20003;BME280;10162;41.600;23.806;2023-05-19T03:48:26;95220.19;;;10.41;100.00
20003;BME280;10162;41.600;23.806;2023-05-19T03:51:21;95216.91;;;10.11;100.00
20003;BME280;10162;41.600;23.806;2023-05-19T03:53:50;95248.78;;;10.21;100.00
20003;BME280;10162;41.600;23.806;2023-05-19T03:56:17;95243.75;;;10.47;100.00
20003;BME280;10162;41.600;23.806;2023-05-19T03:58:45;95218.84;;;10.51;100.00
20003;BME280;10162;41.600;23.806;2023-05-19T04:01:11;95240.31;;;10.74;100.00
20003;BME280;10162;41.600;23.806;2023-05-19T04:03:37;95239.91;;;10.77;100.00
20003;BME280;10162;41.600;23.806;2023-05-19T04:06:02;95246.38;;;10.88;100.00
20003;BME280;10162;41.600;23.806;2023-05-19T04:08:30;95243.72;;;11.16;100.00
20003;BME280;10162;41.600;23.806;2023-05-19T04:11:03;95259.69;;;11.34;100.00
20003;BME280;10162;41.600;23.806;2023-05-19T04:13:33;95255.91;;;11.43;100.00
20003;BME280;10162;41.600;23.806;2023-05-19T04:15:59;95247.63;;;11.33;100.00
20003;BME280;10162;41.600;23.806;2023-05-19T04:18:25;95243.25;;;11.60;100.00
20003;BME280;10162;41.600;23.806;2023-05-19T04:21:03;95243.06;;;11.68;100.00
20003;BME280;10162;41.600;23.806;2023-05-19T04:23:45;95255.41;;;11.81;100.00
20003;BME280;10162;41.600;23.806;2023-05-19T04:26:11;95255.44;;;11.94;100.00
20003;BME280;10162;41.600;23.806;2023-05-19T04:28:40;95259.69;;;12.02;100.00
20003;BME280;10162;41.600;23.806;2023-05-19T04:31:12;95248.59;;;11.99;100.00
20003;BME280;10162;41.600;23.806;2023-05-19T04:33:39;95259.50;;;12.29;100.00
20003;BME280;10162;41.600;23.806;2023-05-19T04:36:07;95262.31;;;12.48;100.00
20003;BME280;10162;41.600;23.806;2023-05-19T04:38:37;95262.31;;;12.54;100.00
20003;BME280;10162;41.600;23.806;2023-05-19T04:44:22;95262.22;;;12.94;100.00
20003;BME280;10162;41.600;23.806;2023-05-19T04:46:49;95270.69;;;13.09;100.00
20003;BME280;10162;41.600;23.806;2023-05-19T04:49:40;95270.25;;;13.32;100.00
20003;BME280;10162;41.600;23.806;2023-05-19T04:52:07;95266.66;;;13.06;100.00
20003;BME280;10162;41.600;23.806;2023-05-19T04:54:36;95240.22;;;13.01;100.00
20003;BME280;10162;41.600;23.806;2023-05-19T04:57:02;95239.59;;;13.19;100.00
20003;BME280;10162;41.600;23.806;2023-05-19T05:02:53;95264.50;;;13.86;100.00
20003;BME280;10162;41.600;23.806;2023-05-19T05:05:22;95251.94;;;13.94;100.00
20003;BME280;10162;41.600;23.806;2023-05-19T05:07:49;95282.31;;;14.15;100.00
20003;BME280;10162;41.600;23.806;2023-05-19T05:10:50;95283.63;;;14.06;100.00
20003;BME280;10162;41.600;23.806;2023-05-19T05:13:19;95282.41;;;14.40;100.00
20003;BME280;10162;41.600;23.806;2023-05-19T05:15:46;95281.59;;;14.33;100.00
20003;BME280;10162;41.600;23.806;2023-05-19T05:18:13;95282.94;;;14.17;100.00
20003;BME280;10162;41.600;23.806;2023-05-19T05:20:42;95272.31;;;14.30;100.00
20003;BME280;10162;41.600;23.806;2023-05-19T05:23:10;95258.16;;;14.00;100.00
20003;BME280;10162;41.600;23.806;2023-05-19T05:25:41;95282.50;;;14.20;100.00
20003;BME280;10162;41.600;23.806;2023-05-19T05:28:07;95278.34;;;14.06;100.00
20003;BME280;10162;41.600;23.806;2023-05-19T05:30:48;95260.00;;;13.99;100.00
20003;BME280;10162;41.600;23.806;2023-05-19T05:33:15;95272.06;;;14.38;100.00
20003;BME280;10162;41.600;23.806;2023-05-19T05:35:41;95261.31;;;14.46;100.00
20003;BME280;10162;41.600;23.806;2023-05-19T05:38:10;95269.50;;;14.57;100.00
20003;BME280;10162;41.600;23.806;2023-05-19T05:40:40;95269.25;;;14.40;100.00
20003;BME280;10162;41.600;23.806;2023-05-19T05:43:09;95268.09;;;14.79;100.00
20003;BME280;10162;41.600;23.806;2023-05-19T05:45:40;95264.88;;;14.95;100.00
20003;BME280;10162;41.600;23.806;2023-05-19T05:48:07;95272.72;;;15.02;100.00
20003;BME280;10162;41.600;23.806;2023-05-19T05:50:34;95263.78;;;15.21;100.00
20003;BME280;10162;41.600;23.806;2023-05-19T05:53:04;95282.97;;;15.46;100.00
20003;BME280;10162;41.600;23.806;2023-05-19T05:55:34;95275.06;;;15.46;100.00
20003;BME280;10162;41.600;23.806;2023-05-19T05:58:00;95279.59;;;15.76;100.00
20003;BME280;10162;41.600;23.806;2023-05-19T06:00:27;95277.53;;;15.78;100.00
20003;BME280;10162;41.600;23.806;2023-05-19T06:02:53;95287.59;;;15.99;100.00
20003;BME280;10162;41.600;23.806;2023-05-19T06:05:19;95268.19;;;15.93;100.00
20003;BME280;10162;41.600;23.806;2023-05-19T06:07:46;95285.56;;;16.12;100.00
20003;BME280;10162;41.600;23.806;2023-05-19T06:10:22;95277.97;;;16.04;99.95
20003;BME280;10162;41.600;23.806;2023-05-19T06:12:48;95274.81;;;16.26;99.22
20003;BME280;10162;41.600;23.806;2023-05-19T06:15:33;95298.66;;;16.19;100.00
20003;BME280;10162;41.600;23.806;2023-05-19T06:18:16;95287.84;;;16.09;100.00
20003;BME280;10162;41.600;23.806;2023-05-19T06:24:36;95287.31;;;16.19;100.00
20003;BME280;10162;41.600;23.806;2023-05-19T06:27:03;95286.56;;;16.53;100.00
20003;BME280;10162;41.600;23.806;2023-05-19T06:29:45;95282.63;;;16.85;96.83
20003;BME280;10162;41.600;23.806;2023-05-19T06:32:12;95271.22;;;16.50;97.90
20003;BME280;10162;41.600;23.806;2023-05-19T06:34:39;95291.81;;;16.94;96.83
20003;BME280;10162;41.600;23.806;2023-05-19T06:37:05;95289.28;;;16.88;97.93
20003;BME280;10162;41.600;23.806;2023-05-19T06:39:38;95285.25;;;17.09;96.79
20003;BME280;10162;41.600;23.806;2023-05-19T06:42:05;95278.28;;;16.91;97.79
20003;BME280;10162;41.600;23.806;2023-05-19T06:44:56;95281.13;;;17.24;97.52
20003;BME280;10162;41.600;23.806;2023-05-19T06:47:22;95290.19;;;17.80;93.60
20003;BME280;10162;41.600;23.806;2023-05-19T06:50:19;95299.75;;;18.09;91.15
20003;BME280;10162;41.600;23.806;2023-05-19T06:52:48;95296.56;;;17.96;88.30
20003;BME280;10162;41.600;23.806;2023-05-19T06:55:14;95288.72;;;18.01;85.20
20003;BME280;10162;41.600;23.806;2023-05-19T06:57:42;95297.59;;;18.23;85.75
20003;BME280;10162;41.600;23.806;2023-05-19T07:04:02;95283.25;;;17.91;77.14
20003;BME280;10162;41.600;23.806;2023-05-19T07:06:28;95272.84;;;17.72;76.64
20003;BME280;10162;41.600;23.806;2023-05-19T07:12:23;95297.38;;;17.96;77.26
20003;BME280;10162;41.600;23.806;2023-05-19T07:14:51;95289.91;;;18.22;72.65
20003;BME280;10162;41.600;23.806;2023-05-19T07:17:17;95281.25;;;18.71;70.61
20003;BME280;10162;41.600;23.806;2023-05-19T07:19:58;95289.16;;;19.43;67.52
20003;BME280;10162;41.600;23.806;2023-05-19T07:22:28;95281.06;;;18.78;68.22
20003;BME280;10162;41.600;23.806;2023-05-19T07:24:54;95282.50;;;18.69;67.27
20003;BME280;10162;41.600;23.806;2023-05-19T07:27:22;95287.56;;;19.42;63.01
20003;BME280;10162;41.600;23.806;2023-05-19T07:30:08;95300.47;;;19.55;61.69
20003;BME280;10162;41.600;23.806;2023-05-19T07:32:34;95283.75;;;20.25;60.23
20003;BME280;10162;41.600;23.806;2023-05-19T07:34:59;95285.47;;;20.09;60.49
20003;BME280;10162;41.600;23.806;2023-05-19T07:37:25;95279.94;;;20.38;59.15
20003;BME280;10162;41.600;23.806;2023-05-19T07:40:07;95257.31;;;20.08;60.63
20003;BME280;10162;41.600;23.806;2023-05-19T07:42:33;95271.28;;;19.99;61.25
20003;BME280;10162;41.600;23.806;2023-05-19T07:44:59;95274.84;;;19.44;59.23
20003;BME280;10162;41.600;23.806;2023-05-19T07:47:25;95274.41;;;19.69;56.71
20003;BME280;10162;41.600;23.806;2023-05-19T07:49:51;95275.91;;;20.35;57.97
20003;BME280;10162;41.600;23.806;2023-05-19T07:52:17;95270.97;;;20.22;57.65
20003;BME280;10162;41.600;23.806;2023-05-19T07:54:43;95272.63;;;20.01;60.81
20003;BME280;10162;41.600;23.806;2023-05-19T07:57:09;95268.81;;;20.73;55.47
20003;BME280;10162;41.600;23.806;2023-05-19T07:59:36;95294.88;;;21.60;56.25
20003;BME280;10162;41.600;23.806;2023-05-19T08:02:03;95278.44;;;21.21;56.03
20003;BME280;10162;41.600;23.806;2023-05-19T08:04:29;95281.97;;;21.94;54.19
20003;BME280;10162;41.600;23.806;2023-05-19T08:06:56;95269.31;;;21.59;52.60
20003;BME280;10162;41.600;23.806;2023-05-19T08:09:22;95262.94;;;20.71;51.93
20003;BME280;10162;41.600;23.806;2023-05-19T08:11:48;95254.88;;;21.34;52.02
20003;BME280;10162;41.600;23.806;2023-05-19T08:14:14;95275.66;;;20.10;55.48
20003;BME280;10162;41.600;23.806;2023-05-19T08:16:42;95269.31;;;21.07;55.36
20003;BME280;10162;41.600;23.806;2023-05-19T08:19:10;95279.09;;;21.01;55.60
20003;BME280;10162;41.600;23.806;2023-05-19T08:21:35;95266.53;;;20.91;54.55
20003;BME280;10162;41.600;23.806;2023-05-19T08:24:01;95260.22;;;21.02;53.57
20003;BME280;10162;41.600;23.806;2023-05-19T08:26:28;95265.69;;;20.86;55.21
20003;BME280;10162;41.600;23.806;2023-05-19T08:28:54;95264.44;;;20.93;55.04
20003;BME280;10162;41.600;23.806;2023-05-19T08:31:21;95276.84;;;21.72;54.09
20003;BME280;10162;41.600;23.806;2023-05-19T08:33:47;95274.00;;;21.36;51.46
20003;BME280;10162;41.600;23.806;2023-05-19T08:36:13;95262.22;;;21.74;50.92
20003;BME280;10162;41.600;23.806;2023-05-19T08:38:39;95261.31;;;22.61;50.73
20003;BME280;10162;41.600;23.806;2023-05-19T08:41:07;95274.66;;;22.36;46.26
20003;BME280;10162;41.600;23.806;2023-05-19T08:43:33;95277.38;;;22.82;46.18
20003;BME280;10162;41.600;23.806;2023-05-19T08:46:02;95276.28;;;22.73;46.65
20003;BME280;10162;41.600;23.806;2023-05-19T08:48:28;95270.13;;;22.27;46.06
20003;BME280;10162;41.600;23.806;2023-05-19T08:53:36;95282.34;;;23.44;45.92
20003;BME280;10162;41.600;23.806;2023-05-19T08:56:08;95268.56;;;22.86;44.58
20003;BME280;10162;41.600;23.806;2023-05-19T08:58:40;95282.38;;;23.14;43.02
20003;BME280;10162;41.600;23.806;2023-05-19T09:01:21;95269.06;;;23.03;43.92
20003;BME280;10162;41.600;23.806;2023-05-19T09:03:47;95273.94;;;23.81;43.66
20003;BME280;10162;41.600;23.806;2023-05-19T09:06:14;95267.97;;;23.20;43.00
20003;BME280;10162;41.600;23.806;2023-05-19T09:08:40;95275.50;;;22.77;43.90
20003;BME280;10162;41.600;23.806;2023-05-19T09:11:09;95264.50;;;22.23;45.99
20003;BME280;10162;41.600;23.806;2023-05-19T09:13:35;95271.59;;;20.93;46.24
20003;BME280;10162;41.600;23.806;2023-05-19T09:16:01;95287.78;;;21.23;46.85
20003;BME280;10162;41.600;23.806;2023-05-19T09:18:28;95285.38;;;21.22;47.95
20003;BME280;10162;41.600;23.806;2023-05-19T09:21:01;95250.03;;;20.84;47.90
20003;BME280;10162;41.600;23.806;2023-05-19T09:23:29;95264.72;;;21.02;50.63
20003;BME280;10162;41.600;23.806;2023-05-19T09:25:56;95275.34;;;20.97;48.53
20003;BME280;10162;41.600;23.806;2023-05-19T09:28:29;95283.66;;;20.42;46.57
20003;BME280;10162;41.600;23.806;2023-05-19T09:31:08;95290.13;;;20.51;48.69
20003;BME280;10162;41.600;23.806;2023-05-19T09:33:39;95285.47;;;20.36;48.71
20003;BME280;10162;41.600;23.806;2023-05-19T09:36:05;95279.13;;;20.69;47.83
20003;BME280;10162;41.600;23.806;2023-05-19T09:38:34;95260.28;;;20.39;48.10
20003;BME280;10162;41.600;23.806;2023-05-19T09:41:00;95290.34;;;20.76;47.69
20003;BME280;10162;41.600;23.806;2023-05-19T09:43:28;95262.66;;;20.67;49.55
20003;BME280;10162;41.600;23.806;2023-05-19T09:46:07;95286.09;;;21.12;49.02
20003;BME280;10162;41.600;23.806;2023-05-19T09:48:35;95276.75;;;21.47;48.96
20003;BME280;10162;41.600;23.806;2023-05-19T09:51:06;95276.38;;;21.85;47.51
20003;BME280;10162;41.600;23.806;2023-05-19T09:53:34;95280.03;;;22.77;44.60
20003;BME280;10162;41.600;23.806;2023-05-19T09:56:01;95284.81;;;22.80;45.41
20003;BME280;10162;41.600;23.806;2023-05-19T09:58:34;95242.16;;;22.95;43.38
20003;BME280;10162;41.600;23.806;2023-05-19T10:01:23;95281.91;;;22.81;47.34
20003;BME280;10162;41.600;23.806;2023-05-19T10:03:51;95262.94;;;22.42;48.65
20003;BME280;10162;41.600;23.806;2023-05-19T10:06:18;95281.03;;;22.50;50.38
20003;BME280;10162;41.600;23.806;2023-05-19T10:09:08;95278.22;;;21.79;50.80
20003;BME280;10162;41.600;23.806;2023-05-19T10:11:35;95258.22;;;21.20;52.12
20003;BME280;10162;41.600;23.806;2023-05-19T10:14:01;95254.69;;;20.67;53.42
20003;BME280;10162;41.600;23.806;2023-05-19T10:22:44;95264.94;;;19.78;59.30
20003;BME280;10162;41.600;23.806;2023-05-19T10:25:11;95290.28;;;19.91;57.02
20003;BME280;10162;41.600;23.806;2023-05-19T10:27:53;95278.06;;;20.16;55.68
20003;BME280;10162;41.600;23.806;2023-05-19T10:30:35;95260.53;;;20.10;54.94
20003;BME280;10162;41.600;23.806;2023-05-19T10:33:07;95286.81;;;20.66;53.38
20003;BME280;10162;41.600;23.806;2023-05-19T10:36:01;95289.50;;;20.71;52.84
20003;BME280;10162;41.600;23.806;2023-05-19T10:46:39;95274.63;;;21.54;50.59
20003;BME280;10162;41.600;23.806;2023-05-19T10:49:09;95266.31;;;21.35;50.51
20003;BME280;10162;41.600;23.806;2023-05-19T10:51:44;95269.75;;;21.93;48.88
20003;BME280;10162;41.600;23.806;2023-05-19T10:54:09;95270.59;;;21.41;47.70
20003;BME280;10162;41.600;23.806;2023-05-19T10:56:39;95281.00;;;21.06;48.08
20003;BME280;10162;41.600;23.806;2023-05-19T10:59:31;95281.41;;;20.55;50.09
20003;BME280;10162;41.600;23.806;2023-05-19T11:02:06;95272.28;;;20.19;52.66
20003;BME280;10162;41.600;23.806;2023-05-19T11:04:46;95280.81;;;20.21;49.98
20003;BME280;10162;41.600;23.806;2023-05-19T11:07:22;95276.00;;;20.45;51.49
20003;BME280;10162;41.600;23.806;2023-05-19T11:09:50;95258.91;;;20.68;50.84
20003;BME280;10162;41.600;23.806;2023-05-19T11:12:20;95273.34;;;20.77;51.61
20003;BME280;10162;41.600;23.806;2023-05-19T11:14:56;95264.72;;;21.02;51.37
20003;BME280;10162;41.600;23.806;2023-05-19T11:17:24;95252.72;;;20.89;51.81
20003;BME280;10162;41.600;23.806;2023-05-19T11:19:53;95263.97;;;21.01;52.76
20003;BME280;10162;41.600;23.806;2023-05-19T11:22:24;95279.59;;;20.98;52.98
20003;BME280;10162;41.600;23.806;2023-05-19T11:24:52;95254.03;;;21.24;51.83
20003;BME280;10162;41.600;23.806;2023-05-19T11:27:26;95244.88;;;21.62;50.72
20003;BME280;10162;41.600;23.806;2023-05-19T11:29:53;95263.06;;;21.85;51.57
20003;BME280;10162;41.600;23.806;2023-05-19T11:32:21;95256.44;;;20.93;54.79
20003;BME280;10162;41.600;23.806;2023-05-19T11:34:49;95255.94;;;20.96;57.91
20003;BME280;10162;41.600;23.806;2023-05-19T11:37:15;95237.00;;;20.88;55.08
20003;BME280;10162;41.600;23.806;2023-05-19T11:39:44;95257.06;;;21.06;53.61
20003;BME280;10162;41.600;23.806;2023-05-19T11:42:10;95256.69;;;20.92;56.09
20003;BME280;10162;41.600;23.806;2023-05-19T11:44:36;95257.31;;;20.35;57.64
20003;BME280;10162;41.600;23.806;2023-05-19T11:47:03;95253.25;;;20.54;57.03
20003;BME280;10162;41.600;23.806;2023-05-19T11:49:30;95264.03;;;20.43;59.44
20003;BME280;10162;41.600;23.806;2023-05-19T11:51:56;95234.66;;;20.28;59.06
20003;BME280;10162;41.600;23.806;2023-05-19T11:54:31;95255.41;;;20.62;59.21
20003;BME280;10162;41.600;23.806;2023-05-19T11:57:01;95258.78;;;20.85;59.23
20003;BME280;10162;41.600;23.806;2023-05-19T11:59:34;95251.59;;;20.85;59.52
20003;BME280;10162;41.600;23.806;2023-05-19T12:02:01;95258.16;;;21.10;56.51
20003;BME280;10162;41.600;23.806;2023-05-19T12:04:31;95238.25;;;21.69;53.65
20003;BME280;10162;41.600;23.806;2023-05-19T12:06:57;95258.69;;;23.12;50.63
20003;BME280;10162;41.600;23.806;2023-05-19T12:09:23;95242.41;;;23.08;50.58
20003;BME280;10162;41.600;23.806;2023-05-19T12:11:50;95209.25;;;23.40;48.87
20003;BME280;10162;41.600;23.806;2023-05-19T12:14:17;95234.44;;;22.88;47.90
20003;BME280;10162;41.600;23.806;2023-05-19T12:16:43;95218.56;;;23.37;46.39
20003;BME280;10162;41.600;23.806;2023-05-19T12:19:10;95214.75;;;23.64;42.78
20003;BME280;10162;41.600;23.806;2023-05-19T12:21:36;95212.66;;;23.61;41.10
20003;BME280;10162;41.600;23.806;2023-05-19T12:24:02;95210.34;;;23.19;41.75
20003;BME280;10162;41.600;23.806;2023-05-19T12:26:27;95212.28;;;22.27;42.87
20003;BME280;10162;41.600;23.806;2023-05-19T12:28:53;95203.94;;;21.83;42.09
20003;BME280;10162;41.600;23.806;2023-05-19T12:31:20;95212.16;;;21.66;43.26
20003;BME280;10162;41.600;23.806;2023-05-19T12:33:48;95214.34;;;21.79;41.48
20003;BME280;10162;41.600;23.806;2023-05-19T12:36:16;95211.53;;;22.27;42.12
20003;BME280;10162;41.600;23.806;2023-05-19T12:38:44;95191.53;;;22.19;41.40
20003;BME280;10162;41.600;23.806;2023-05-19T12:41:12;95188.09;;;23.59;39.88
20003;BME280;10162;41.600;23.806;2023-05-19T12:43:39;95222.66;;;23.10;40.68
20003;BME280;10162;41.600;23.806;2023-05-19T12:46:12;95201.38;;;22.59;42.00
20003;BME280;10162;41.600;23.806;2023-05-19T12:48:45;95218.97;;;22.19;42.25
20003;BME280;10162;41.600;23.806;2023-05-19T12:51:18;95213.03;;;21.92;41.35
20003;BME280;10162;41.600;23.806;2023-05-19T12:53:46;95203.75;;;22.05;43.33
20003;BME280;10162;41.600;23.806;2023-05-19T12:56:13;95215.78;;;22.38;41.55
20003;BME280;10162;41.600;23.806;2023-05-19T12:58:41;95210.97;;;22.24;41.07
20003;BME280;10162;41.600;23.806;2023-05-19T13:01:15;95203.09;;;21.62;42.40
20003;BME280;10162;41.600;23.806;2023-05-19T13:03:42;95214.38;;;21.95;41.72
20003;BME280;10162;41.600;23.806;2023-05-19T13:06:08;95198.41;;;21.95;41.47
20003;BME280;10162;41.600;23.806;2023-05-19T13:08:36;95205.59;;;21.99;43.78
20003;BME280;10162;41.600;23.806;2023-05-19T13:11:04;95187.50;;;22.01;43.86
20003;BME280;10162;41.600;23.806;2023-05-19T13:13:31;95192.34;;;22.19;41.92
20003;BME280;10162;41.600;23.806;2023-05-19T13:15:57;95201.63;;;22.02;42.79
20003;BME280;10162;41.600;23.806;2023-05-19T13:18:25;95199.50;;;22.70;41.94
20003;BME280;10162;41.600;23.806;2023-05-19T13:20:51;95189.31;;;23.81;39.37
20003;BME280;10162;41.600;23.806;2023-05-19T13:23:18;95185.72;;;24.74;37.03
20003;BME280;10162;41.600;23.806;2023-05-19T13:25:44;95200.97;;;24.01;39.46
20003;BME280;10162;41.600;23.806;2023-05-19T13:28:10;95211.91;;;23.40;41.36
20003;BME280;10162;41.600;23.806;2023-05-19T13:30:38;95195.56;;;22.72;39.31
20003;BME280;10162;41.600;23.806;2023-05-19T13:33:04;95205.34;;;22.01;41.08
20003;BME280;10162;41.600;23.806;2023-05-19T13:35:30;95212.41;;;21.65;48.70
20003;BME280;10162;41.600;23.806;2023-05-19T13:38:08;95208.63;;;21.46;52.21
20003;BME280;10162;41.600;23.806;2023-05-19T13:40:35;95203.75;;;21.27;55.37
20003;BME280;10162;41.600;23.806;2023-05-19T13:43:01;95193.13;;;20.85;63.35
20003;BME280;10162;41.600;23.806;2023-05-19T13:45:27;95206.94;;;20.45;69.61
20003;BME280;10162;41.600;23.806;2023-05-19T13:47:53;95221.09;;;20.24;74.40
20003;BME280;10162;41.600;23.806;2023-05-19T13:50:26;95208.56;;;19.88;76.21
20003;BME280;10162;41.600;23.806;2023-05-19T13:52:52;95216.72;;;19.59;77.69
20003;BME280;10162;41.600;23.806;2023-05-19T13:55:18;95212.59;;;19.47;86.34
20003;BME280;10162;41.600;23.806;2023-05-19T13:57:44;95224.94;;;19.58;69.79
20003;BME280;10162;41.600;23.806;2023-05-19T14:00:13;95215.41;;;19.40;72.24
20003;BME280;10162;41.600;23.806;2023-05-19T14:02:39;95240.72;;;19.48;69.89
20003;BME280;10162;41.600;23.806;2023-05-19T14:05:06;95244.25;;;19.53;60.79
20003;BME280;10162;41.600;23.806;2023-05-19T14:07:32;95230.13;;;19.48;52.50